createdAt,value
2019-05-12T00:01:02.341Z,99032.33
2019-05-12T00:03:31.950Z,99016.79
2019-05-12T00:06:01.604Z,99011.90
2019-05-12T00:08:31.249Z,99012.52
2019-05-12T00:11:00.841Z,99010.59
2019-05-12T00:13:30.510Z,99011.77
2019-05-12T00:16:00.186Z,99016.31
2019-05-12T00:18:29.807Z,99017.48
2019-05-12T00:20:59.444Z,99021.48
2019-05-12T00:23:31.194Z,99023.91
2019-05-12T00:26:00.446Z,99030.30
2019-05-12T00:28:30.035Z,99035.22
2019-05-12T00:30:59.661Z,99034.50
2019-05-12T00:33:29.309Z,99035.11
2019-05-12T00:35:58.937Z,99027.41
2019-05-12T00:38:28.615Z,99031.30
2019-05-12T00:40:58.488Z,99029.11
2019-05-12T00:43:28.388Z,99038.11
2019-05-12T00:45:58.692Z,99035.87
2019-05-12T00:48:28.645Z,99038.38
2019-05-12T00:50:58.550Z,99042.50
2019-05-12T00:53:37.131Z,99047.32
2019-05-12T00:55:59.608Z,99050.03
2019-05-12T00:58:29.241Z,99051.03
2019-05-12T01:00:59.670Z,99053.52
2019-05-12T01:03:29.507Z,99050.41
2019-05-12T01:05:59.132Z,99049.80
2019-05-12T01:08:28.752Z,99059.67
2019-05-12T01:10:58.541Z,99060.60
2019-05-12T01:13:28.207Z,99054.34
2019-05-12T01:15:58.703Z,99074.41
2019-05-12T01:18:28.478Z,99076.86
2019-05-12T01:20:58.416Z,99074.52
2019-05-12T01:23:28.334Z,99069.51
2019-05-12T01:25:58.684Z,99071.70
2019-05-12T01:28:28.539Z,99083.81
2019-05-12T01:30:59.936Z,99075.73
2019-05-12T01:33:29.601Z,99078.60
2019-05-12T01:35:59.294Z,99069.38
2019-05-12T01:38:28.987Z,99076.90
2019-05-12T01:40:58.771Z,99074.02
2019-05-12T01:43:28.425Z,99083.57
2019-05-12T01:45:58.947Z,99083.53
2019-05-12T01:48:28.955Z,99094.39
2019-05-12T01:50:58.747Z,99088.36
2019-05-12T01:53:28.824Z,99086.06
2019-05-12T01:55:58.665Z,99087.84
2019-05-12T01:58:28.261Z,99086.34
2019-05-12T02:00:58.847Z,99086.34
2019-05-12T02:03:28.742Z,99087.59
2019-05-12T02:05:59.604Z,99091.97
2019-05-12T02:08:35.158Z,99086.98
2019-05-12T02:11:22.725Z,99091.59
2019-05-12T02:13:52.310Z,99090.55
2019-05-12T02:16:21.929Z,99093.25
2019-05-12T02:18:51.557Z,99094.43
2019-05-12T02:21:21.192Z,99093.25
2019-05-12T02:23:50.801Z,99091.98
2019-05-12T02:26:20.422Z,99091.48
2019-05-12T02:28:50.049Z,99092.92
2019-05-12T02:31:20.867Z,99100.95
2019-05-12T02:33:50.577Z,99101.02
2019-05-12T02:36:20.200Z,99105.75
2019-05-12T02:38:49.848Z,99110.21
2019-05-12T02:41:19.491Z,99118.09
2019-05-12T02:43:49.122Z,99120.36
2019-05-12T02:46:18.706Z,99118.95
2019-05-12T02:48:48.422Z,99126.63
2019-05-12T02:51:18.466Z,99125.27
2019-05-12T02:53:48.663Z,99128.61
2019-05-12T02:56:20.068Z,99136.11
2019-05-12T02:58:54.202Z,99130.17
2019-05-12T03:01:24.575Z,99135.30
2019-05-12T03:03:56.537Z,99127.70
2019-05-12T03:06:28.699Z,99132.74
2019-05-12T03:09:04.793Z,99130.38
2019-05-12T03:11:36.292Z,99125.41
2019-05-12T03:14:06.212Z,99132.08
2019-05-12T03:16:35.815Z,99130.28
2019-05-12T03:19:05.619Z,99134.16
2019-05-12T03:21:35.937Z,99129.86
2019-05-12T03:24:06.851Z,99129.69
2019-05-12T03:26:36.819Z,99136.12
2019-05-12T03:29:06.683Z,99139.98
2019-05-12T03:31:39.746Z,99130.72
2019-05-12T03:34:10.767Z,99134.57
2019-05-12T03:36:42.976Z,99143.40
2019-05-12T03:39:10.701Z,99132.58
2019-05-12T03:41:40.360Z,99139.18
2019-05-12T03:44:09.998Z,99140.76
2019-05-12T03:46:39.617Z,99139.19
2019-05-12T03:49:09.257Z,99136.64
2019-05-12T03:51:38.856Z,99141.27
2019-05-12T03:54:08.470Z,99145.89
2019-05-12T03:56:38.081Z,99143.33
2019-05-12T03:59:07.691Z,99149.24
2019-05-12T04:01:37.354Z,99146.95
2019-05-12T04:04:07.067Z,99147.46
2019-05-12T04:06:36.734Z,99151.72
2019-05-12T04:09:09.046Z,99153.92
2019-05-12T04:11:38.925Z,99150.16
2019-05-12T04:14:08.610Z,99162.45
2019-05-12T04:16:38.214Z,99154.13
2019-05-12T04:19:07.949Z,99164.67
2019-05-12T04:21:37.583Z,99153.70
2019-05-12T04:24:07.254Z,99151.85
2019-05-12T04:26:37.048Z,99159.88
2019-05-12T04:29:06.786Z,99158.33
2019-05-12T04:31:37.143Z,99161.75
2019-05-12T04:34:06.959Z,99161.95
2019-05-12T04:36:36.613Z,99166.84
2019-05-12T04:39:08.240Z,99166.48
2019-05-12T04:41:38.504Z,99168.70
2019-05-12T04:44:08.128Z,99163.89
2019-05-12T04:46:37.779Z,99164.08
2019-05-12T04:49:07.422Z,99165.89
2019-05-12T04:51:37.073Z,99171.41
2019-05-12T04:54:06.702Z,99176.54
2019-05-12T04:56:36.511Z,99172.38
2019-05-12T04:59:06.152Z,99175.16
2019-05-12T05:01:35.840Z,99172.16
2019-05-12T05:04:06.117Z,99175.28
2019-05-12T05:06:36.291Z,99166.22
2019-05-12T05:09:08.522Z,99167.17
2019-05-12T05:11:38.168Z,99164.92
2019-05-12T05:14:07.838Z,99160.73
2019-05-12T05:16:37.515Z,99159.53
2019-05-12T05:19:07.130Z,99159.91
2019-05-12T05:21:36.754Z,99164.90
2019-05-12T05:24:06.384Z,99167.18
2019-05-12T05:26:37.452Z,99164.25
2019-05-12T05:29:07.198Z,99159.08
2019-05-12T05:31:36.796Z,99151.72
2019-05-12T05:34:06.437Z,99156.44
2019-05-12T05:36:36.154Z,99156.35
2019-05-12T05:39:07.747Z,99161.04
2019-05-12T05:41:40.186Z,99152.85
2019-05-12T05:44:08.851Z,99152.89
2019-05-12T05:46:47.717Z,99153.77
2019-05-12T05:49:09.787Z,99151.48
2019-05-12T05:51:45.055Z,99151.84
2019-05-12T05:54:10.985Z,99154.28
2019-05-12T05:56:48.461Z,99156.31
2019-05-12T05:59:14.958Z,99148.74
2019-05-12T06:01:46.926Z,99152.44
2019-05-12T06:04:18.058Z,99155.05
2019-05-12T06:06:52.772Z,99158.23
2019-05-12T06:09:23.403Z,99165.73
2019-05-12T06:11:54.153Z,99165.25
2019-05-12T06:14:24.051Z,99172.06
2019-05-12T06:16:56.650Z,99168.42
2019-05-12T06:19:29.337Z,99169.42
2019-05-12T06:21:58.921Z,99176.78
2019-05-12T06:24:33.492Z,99169.69
2019-05-12T06:27:14.292Z,99172.31
2019-05-12T06:29:34.212Z,99182.48
2019-05-12T06:32:06.317Z,99185.80
2019-05-12T06:34:35.301Z,99180.65
2019-05-12T06:37:11.896Z,99176.86
2019-05-12T06:39:36.250Z,99173.20
2019-05-12T06:42:12.245Z,99173.09
2019-05-12T06:44:37.342Z,99167.13
2019-05-12T06:47:08.351Z,99169.56
2019-05-12T06:49:38.274Z,99163.30
2019-05-12T06:52:11.494Z,99160.12
2019-05-12T06:54:44.570Z,99157.93
2019-05-12T06:57:22.194Z,99165.84
2019-05-12T06:59:51.032Z,99073.29
2019-05-12T07:02:18.374Z,99160.58
2019-05-12T07:04:56.301Z,99151.56
2019-05-12T07:07:19.347Z,99154.67
2019-05-12T07:09:54.279Z,99158.28
2019-05-12T07:12:24.818Z,99155.79
2019-05-12T07:14:55.429Z,99156.23
2019-05-12T07:17:47.723Z,99155.72
2019-05-12T07:20:14.691Z,99150.25
2019-05-12T07:22:48.339Z,99161.21
2019-05-12T07:25:15.789Z,99151.39
2019-05-12T07:27:53.618Z,99147.91
2019-05-12T07:30:20.144Z,99149.77
2019-05-12T07:32:59.732Z,99145.20
2019-05-12T07:35:24.025Z,99151.52
2019-05-12T07:37:54.880Z,99149.80
2019-05-12T07:40:29.864Z,99148.02
2019-05-12T07:42:57.543Z,99147.00
2019-05-12T07:45:27.726Z,99144.21
2019-05-12T07:47:59.373Z,99149.38
2019-05-12T07:50:28.822Z,99150.77
2019-05-12T07:52:58.416Z,99141.98
2019-05-12T07:55:27.988Z,99147.91
2019-05-12T07:58:03.959Z,99149.72
2019-05-12T08:00:28.989Z,99140.37
2019-05-12T08:02:58.630Z,99147.89
2019-05-12T08:05:28.253Z,99146.84
2019-05-12T08:08:00.557Z,99135.89
2019-05-12T08:10:29.270Z,99130.86
2019-05-12T08:13:00.785Z,99129.07
2019-05-12T08:15:30.241Z,99134.70
2019-05-12T08:17:59.842Z,99084.15
2019-05-12T08:20:29.443Z,99122.04
2019-05-12T08:22:59.705Z,99126.13
2019-05-12T08:25:30.556Z,99130.42
2019-05-12T08:28:14.522Z,99125.12
2019-05-12T08:30:40.251Z,99123.22
2019-05-12T08:33:09.795Z,99117.59
2019-05-12T08:35:39.043Z,99116.81
2019-05-12T08:38:08.737Z,99112.55
2019-05-12T08:40:45.035Z,99111.05
2019-05-12T08:43:10.660Z,99101.54
2019-05-12T08:45:40.596Z,99103.13
2019-05-12T08:48:16.020Z,99103.06
2019-05-12T08:50:45.368Z,99105.44
2019-05-12T08:53:20.575Z,99108.83
2019-05-12T08:55:44.318Z,99106.20
2019-05-12T08:58:29.344Z,99105.67
2019-05-12T09:00:49.699Z,99110.58
2019-05-12T09:03:20.415Z,99113.48
2019-05-12T09:05:48.485Z,99109.30
2019-05-12T09:08:18.594Z,99108.45
2019-05-12T09:10:48.198Z,99107.69
2019-05-12T09:13:17.808Z,99106.64
2019-05-12T09:15:47.414Z,99109.72
2019-05-12T09:18:18.905Z,99107.86
2019-05-12T09:20:52.792Z,99112.52
2019-05-12T09:23:19.781Z,99108.16
2019-05-12T09:25:49.514Z,99114.33
2019-05-12T09:28:19.088Z,99106.05
2019-05-12T09:30:49.490Z,99102.05
2019-05-12T09:33:29.588Z,99107.66
2019-05-12T09:35:55.142Z,99097.25
2019-05-12T09:38:26.431Z,99101.44
2019-05-12T09:41:00.697Z,99091.45
2019-05-12T09:43:28.403Z,99084.45
2019-05-12T09:45:57.991Z,99086.48
2019-05-12T09:48:27.683Z,99078.72
2019-05-12T09:51:02.032Z,99081.91
2019-05-12T09:53:28.683Z,99081.35
2019-05-12T09:55:58.684Z,99068.44
2019-05-12T09:58:29.051Z,99069.50
2019-05-12T10:00:58.723Z,99068.14
2019-05-12T10:03:30.752Z,99069.40
2019-05-12T10:06:00.071Z,99068.44
2019-05-12T10:08:35.655Z,99066.58
2019-05-12T10:11:03.620Z,99053.63
2019-05-12T10:13:32.860Z,99050.23
2019-05-12T10:16:07.411Z,99055.72
2019-05-12T10:18:34.292Z,99045.77
2019-05-12T10:21:04.234Z,99045.05
2019-05-12T10:23:34.181Z,99040.73
2019-05-12T10:26:09.978Z,99034.65
2019-05-12T10:28:35.571Z,99034.91
2019-05-12T10:31:05.258Z,99030.45
2019-05-12T10:33:34.845Z,99030.45
2019-05-12T10:36:08.433Z,99032.17
2019-05-12T10:38:35.933Z,99030.17
2019-05-12T10:41:05.558Z,99031.91
2019-05-12T10:43:35.154Z,99023.63
2019-05-12T10:46:05.150Z,99018.72
2019-05-12T10:48:34.749Z,99026.72
2019-05-12T10:51:04.390Z,99021.22
2019-05-12T10:53:34.196Z,99026.67
2019-05-12T10:56:04.007Z,99026.67
2019-05-12T10:58:33.707Z,99018.95
2019-05-12T11:01:05.279Z,99024.70
2019-05-12T11:03:34.850Z,99013.23
2019-05-12T11:06:07.487Z,99013.23
2019-05-12T11:08:35.950Z,99014.36
2019-05-12T11:11:05.613Z,99007.41
2019-05-12T11:13:35.213Z,99016.16
2019-05-12T11:16:04.888Z,99002.98
2019-05-12T11:18:36.583Z,99003.62
2019-05-12T11:21:06.173Z,99003.62
2019-05-12T11:23:38.092Z,99005.55
2019-05-12T11:26:07.733Z,99002.73
2019-05-12T11:28:38.477Z,99000.99
2019-05-12T11:31:10.928Z,98998.20
2019-05-12T11:33:40.629Z,98998.20
2019-05-12T11:36:13.587Z,98997.17
2019-05-12T11:38:44.473Z,98986.84
2019-05-12T11:41:19.916Z,98989.33
2019-05-12T11:43:46.799Z,98983.80
2019-05-12T11:46:16.392Z,98989.81
2019-05-12T11:48:50.207Z,98993.32
2019-05-12T11:51:20.857Z,98991.48
2019-05-12T11:53:48.877Z,98987.97
2019-05-12T11:56:18.738Z,98980.76
2019-05-12T11:58:51.514Z,98987.98
2019-05-12T12:01:24.127Z,98983.55
2019-05-12T12:03:54.699Z,98982.77
2019-05-12T12:06:24.749Z,98985.43
2019-05-12T12:08:54.520Z,98978.27
2019-05-12T12:11:27.982Z,98979.65
2019-05-12T12:14:00.467Z,98975.27
2019-05-12T12:16:28.514Z,98977.97
2019-05-12T12:19:02.885Z,98972.73
2019-05-12T12:21:34.313Z,98970.23
2019-05-12T12:24:03.762Z,98973.59
2019-05-12T12:26:37.121Z,98976.08
2019-05-12T12:37:10.414Z,98978.75
2019-05-12T12:39:43.435Z,98966.17
2019-05-12T12:42:16.897Z,98971.18
2019-05-12T12:44:48.417Z,98969.28
2019-05-12T12:47:23.711Z,98966.55
2019-05-12T12:49:54.549Z,98964.47
2019-05-12T12:52:27.856Z,98960.62
2019-05-12T12:54:59.358Z,98963.33
2019-05-12T12:57:30.437Z,98956.96
2019-05-12T13:00:00.657Z,98956.96
2019-05-12T13:02:30.817Z,98953.14
2019-05-12T13:05:04.128Z,98954.17
2019-05-12T13:07:39.254Z,98950.42
2019-05-12T13:10:09.879Z,98947.59
2019-05-12T13:12:43.797Z,98944.00
2019-05-12T13:15:14.653Z,98940.09
2019-05-12T13:17:44.811Z,98940.09
2019-05-12T13:20:17.638Z,98929.78
2019-05-12T13:22:53.644Z,98924.46
2019-05-12T13:25:27.129Z,98912.81
2019-05-12T13:28:10.226Z,98912.81
2019-05-12T13:30:46.076Z,98918.63
2019-05-12T13:33:14.885Z,98917.73
2019-05-12T13:35:45.011Z,98783.18
2019-05-12T13:38:15.489Z,98910.17
2019-05-12T13:40:53.801Z,98911.63
2019-05-12T13:43:39.583Z,98911.81
2019-05-12T13:46:10.074Z,98913.89
2019-05-12T13:48:39.797Z,98912.14
2019-05-12T13:51:15.618Z,98912.59
2019-05-12T13:53:46.354Z,98902.50
2019-05-12T13:56:25.838Z,98900.09
2019-05-12T13:58:54.186Z,98891.17
2019-05-12T14:01:24.999Z,98887.36
2019-05-12T14:03:55.134Z,98896.42
2019-05-12T14:06:31.974Z,98899.46
2019-05-12T14:08:59.009Z,98899.46
2019-05-12T14:11:30.047Z,98896.11
2019-05-12T14:14:11.273Z,98903.45
2019-05-12T14:16:44.661Z,98911.12
2019-05-12T14:19:14.527Z,98907.80
2019-05-12T14:21:44.626Z,98906.17
2019-05-12T14:24:16.704Z,98901.91
2019-05-12T14:26:49.542Z,98900.16
2019-05-12T14:29:26.716Z,98900.44
2019-05-12T14:32:02.136Z,98902.16
2019-05-12T14:34:30.894Z,98900.96
2019-05-12T14:37:08.441Z,98911.77
2019-05-12T14:39:34.353Z,98901.67
2019-05-12T14:42:04.328Z,98908.17
2019-05-12T14:44:38.086Z,98909.91
2019-05-12T14:47:05.541Z,98911.94
2019-05-12T14:49:35.266Z,98903.45
2019-05-12T14:52:04.914Z,98900.16
2019-05-12T14:54:34.536Z,98899.43
2019-05-12T14:57:05.467Z,98894.74
2019-05-12T14:59:40.926Z,98899.17
2019-05-12T15:02:07.174Z,98897.39
2019-05-12T15:04:36.771Z,98891.75
2019-05-12T15:07:09.983Z,98891.70
2019-05-12T15:09:37.749Z,98894.78
2019-05-12T15:12:21.044Z,98891.15
2019-05-12T15:14:47.802Z,98886.26
2019-05-12T15:17:22.712Z,98887.54
2019-05-12T15:19:51.307Z,98877.87
2019-05-12T15:22:20.926Z,98886.43
2019-05-12T15:24:56.957Z,98887.63
2019-05-12T15:27:38.294Z,98882.36
2019-05-12T15:29:59.525Z,98871.98
2019-05-12T15:32:28.697Z,98748.73
2019-05-12T15:34:58.423Z,98870.61
2019-05-12T15:37:29.086Z,98865.67
2019-05-12T15:39:59.682Z,98862.63
2019-05-12T15:42:34.443Z,98861.84
2019-05-12T15:45:06.582Z,98853.62
2019-05-12T15:47:35.851Z,98848.89
2019-05-12T15:50:06.405Z,98847.30
2019-05-12T15:52:42.231Z,98850.31
2019-05-12T15:55:08.123Z,98846.76
2019-05-12T15:57:38.073Z,98845.66
2019-05-12T16:00:07.802Z,98846.70
2019-05-12T16:02:37.476Z,98838.78
2019-05-12T16:05:10.245Z,98707.02
2019-05-12T16:07:39.871Z,98843.20
2019-05-12T16:10:10.011Z,98844.45
2019-05-12T16:12:39.647Z,98843.72
2019-05-12T16:15:11.522Z,98845.66
2019-05-12T16:17:40.816Z,98848.05
2019-05-12T16:20:11.122Z,98848.31
2019-05-12T16:22:44.960Z,98847.77
2019-05-12T16:25:14.810Z,98850.58
2019-05-12T16:27:44.588Z,98858.73
2019-05-12T16:30:15.240Z,98856.95
2019-05-12T16:32:47.861Z,98854.45
2019-05-12T16:35:20.259Z,98855.06
2019-05-12T16:37:48.372Z,98842.72
2019-05-12T16:40:18.231Z,98849.63
2019-05-12T16:42:52.672Z,98850.55
2019-05-12T16:45:20.059Z,98853.36
2019-05-12T16:47:50.089Z,98848.64
2019-05-12T16:50:25.401Z,98856.73
2019-05-12T16:52:53.457Z,98863.44
2019-05-12T16:55:24.166Z,98861.57
2019-05-12T16:57:56.102Z,98862.43
2019-05-12T17:00:25.394Z,98862.13
2019-05-12T17:02:57.996Z,98865.75
2019-05-12T17:05:26.325Z,98870.67
2019-05-12T17:07:57.495Z,98874.54
2019-05-12T17:10:27.241Z,98872.34
2019-05-12T17:12:57.024Z,98871.20
2019-05-12T17:15:26.631Z,98872.89
2019-05-12T17:18:01.297Z,98875.11
2019-05-12T17:20:28.121Z,98881.31
2019-05-12T17:23:00.132Z,98885.45
2019-05-12T17:25:29.113Z,98885.55
2019-05-12T17:28:03.682Z,98883.90
2019-05-12T17:30:30.085Z,98889.73
2019-05-12T17:33:02.512Z,98889.45
2019-05-12T17:35:32.444Z,98896.09
2019-05-12T17:38:04.226Z,98900.77
2019-05-12T17:40:34.040Z,98905.20
2019-05-12T17:43:11.614Z,98902.14
2019-05-12T17:45:35.053Z,98903.66
2019-05-12T17:48:07.535Z,98899.09
2019-05-12T17:50:40.574Z,98898.19
2019-05-12T17:53:07.536Z,98888.09
2019-05-12T17:55:42.606Z,98900.96
2019-05-12T17:58:08.606Z,98896.83
2019-05-12T18:00:41.333Z,98894.78
2019-05-12T18:03:18.154Z,98895.55
2019-05-12T18:05:42.538Z,98899.91
2019-05-12T18:08:14.207Z,98915.17
2019-05-12T18:10:43.824Z,98921.69
2019-05-12T18:13:14.992Z,98917.80
2019-05-12T18:15:44.963Z,98920.27
2019-05-12T18:18:17.510Z,98918.37
2019-05-12T18:20:46.949Z,98915.86
2019-05-12T18:23:19.758Z,98916.36
2019-05-12T18:25:50.197Z,98918.06
2019-05-12T18:28:21.574Z,98921.48
2019-05-12T18:30:53.669Z,98932.47
2019-05-12T18:33:33.577Z,98926.70
2019-05-12T18:35:54.437Z,98935.08
2019-05-12T18:38:26.648Z,98938.66
2019-05-12T18:40:55.601Z,98936.39
2019-05-12T18:43:25.191Z,98935.51
2019-05-12T18:46:02.719Z,98940.58
2019-05-12T18:48:26.352Z,98940.13
2019-05-12T18:50:56.050Z,98936.40
2019-05-12T18:53:31.544Z,98939.78
2019-05-12T18:55:56.998Z,98952.76
2019-05-12T18:58:31.065Z,98956.80
2019-05-12T19:00:57.960Z,98964.81
2019-05-12T19:03:27.550Z,98965.08
2019-05-12T19:05:58.283Z,98967.14
2019-05-12T19:08:28.065Z,98980.21
2019-05-12T19:10:57.837Z,98980.05
2019-05-12T19:13:27.590Z,98988.66
2019-05-12T19:16:02.410Z,98995.46
2019-05-12T19:18:32.667Z,98994.67
2019-05-12T19:20:59.882Z,98994.72
2019-05-12T19:23:34.989Z,98993.40
2019-05-12T19:26:00.936Z,98994.03
2019-05-12T19:28:30.527Z,98996.00
2019-05-12T19:31:01.036Z,99000.36
2019-05-12T19:33:31.567Z,99015.17
2019-05-12T19:36:06.431Z,99009.30
2019-05-12T19:38:34.511Z,99005.38
2019-05-12T19:41:05.487Z,99010.70
2019-05-12T19:43:39.191Z,99010.05
2019-05-12T19:46:06.598Z,99007.33
2019-05-12T19:48:48.003Z,99004.25
2019-05-12T19:51:20.740Z,99006.16
2019-05-12T19:53:38.935Z,99005.53
2019-05-12T19:56:08.650Z,99004.11
2019-05-12T20:01:18.326Z,99003.30
2019-05-12T20:03:50.005Z,98991.60
2019-05-12T20:06:19.660Z,98999.06
2019-05-12T20:08:55.784Z,98996.59
2019-05-12T20:11:26.526Z,98998.07
2019-05-12T20:13:53.763Z,98999.98
2019-05-12T20:16:29.733Z,98996.13
2019-05-12T20:18:57.552Z,98998.84
2019-05-12T20:21:28.318Z,99007.12
2019-05-12T20:23:57.611Z,99014.64
2019-05-12T20:26:27.231Z,99015.16
2019-05-12T20:28:56.783Z,99013.48
2019-05-12T20:31:27.730Z,99017.26
2019-05-12T20:34:04.540Z,99014.09
2019-05-12T20:36:28.561Z,99012.18
2019-05-12T20:38:58.186Z,99015.31
2019-05-12T20:41:27.760Z,99022.70
2019-05-12T20:43:57.328Z,99025.66
2019-05-12T20:46:26.900Z,99032.90
2019-05-12T20:49:01.267Z,99034.66
2019-05-12T20:51:27.778Z,99032.98
2019-05-12T20:53:57.349Z,99028.37
2019-05-12T20:56:26.899Z,99027.62
2019-05-12T20:58:56.485Z,99033.37
2019-05-12T21:01:30.112Z,99034.27
2019-05-12T21:03:57.412Z,99035.02
2019-05-12T21:06:27.010Z,99035.16
2019-05-12T21:08:56.866Z,99044.85
2019-05-12T21:11:26.484Z,99046.57
2019-05-12T21:13:56.064Z,99048.32
2019-05-12T21:16:34.609Z,99048.60
2019-05-12T21:19:07.569Z,99044.45
2019-05-12T21:21:34.348Z,99054.15
2019-05-12T21:24:01.283Z,99053.90
2019-05-12T21:26:34.692Z,99054.02
2019-05-12T21:29:04.554Z,99049.80
2019-05-12T21:31:33.800Z,99051.53
2019-05-12T21:34:06.587Z,99044.98
2019-05-12T21:36:34.749Z,99044.83
2019-05-12T21:39:10.355Z,99055.60
2019-05-12T21:41:40.769Z,99042.61
2019-05-12T21:44:11.274Z,99044.05
2019-05-12T21:46:46.953Z,99038.91
2019-05-12T21:49:12.940Z,99042.20
2019-05-12T21:51:44.654Z,99034.01
2019-05-12T21:54:14.327Z,99041.36
2019-05-12T21:56:49.164Z,99041.42
2019-05-12T21:59:15.718Z,99017.08
2019-05-12T22:01:46.042Z,99042.65
2019-05-12T22:04:15.786Z,99039.67
2019-05-12T22:06:45.499Z,99038.13
2019-05-12T22:09:17.569Z,99040.13
2019-05-12T22:11:51.032Z,99042.44
2019-05-12T22:14:17.672Z,99047.75
2019-05-12T22:16:49.463Z,99047.75
2019-05-12T22:19:19.095Z,99045.25
2019-05-12T22:21:49.600Z,99050.85
2019-05-12T22:24:24.507Z,99050.94
2019-05-12T22:26:50.693Z,99052.81
2019-05-12T22:29:21.217Z,99051.66
2019-05-12T22:31:51.615Z,99047.39
2019-05-12T22:34:21.198Z,99046.97
2019-05-12T22:36:55.434Z,99054.88
2019-05-12T22:39:22.102Z,99049.89
2019-05-12T22:41:51.717Z,99058.08
2019-05-12T22:44:24.556Z,99064.61
2019-05-12T22:46:54.105Z,99063.87
2019-05-12T22:49:23.820Z,99063.98
2019-05-12T22:51:56.588Z,99064.81
2019-05-12T22:54:24.754Z,99065.88
2019-05-12T22:56:55.203Z,99071.83
2019-05-12T22:59:25.687Z,99068.30
2019-05-12T23:01:55.256Z,99063.02
2019-05-12T23:04:25.980Z,99063.42
2019-05-12T23:06:56.154Z,99071.61
2019-05-12T23:09:29.935Z,99071.48
2019-05-12T23:11:57.070Z,99071.67
2019-05-12T23:14:26.688Z,99073.83
2019-05-12T23:17:00.013Z,99079.13
2019-05-12T23:19:27.575Z,99072.68
2019-05-12T23:21:58.729Z,99070.83
2019-05-12T23:24:30.547Z,99070.53
2019-05-12T23:26:59.867Z,99070.19
2019-05-12T23:29:31.004Z,99068.73
2019-05-12T23:32:09.907Z,99070.38
2019-05-12T23:34:33.865Z,99074.13
2019-05-12T23:37:03.990Z,99082.65
2019-05-12T23:39:37.969Z,99084.98
2019-05-12T23:42:04.968Z,99083.84
2019-05-12T23:44:34.583Z,99089.99
2019-05-12T23:47:04.465Z,99094.43
2019-05-12T23:49:34.159Z,99086.89
2019-05-12T23:52:04.107Z,99093.98
2019-05-12T23:54:34.542Z,99090.49
2019-05-12T23:57:04.212Z,99098.00
2019-05-12T23:59:33.811Z,99094.72
